sensor_id;sensor_type;location;lat;lon;timestamp;temperature;humidity
11122;DHT22;5615;49.304;10.576;2024-03-02T00:01:14;6.10;99.90
11122;DHT22;5615;49.304;10.576;2024-03-02T00:03:43;6.10;99.90
11122;DHT22;5615;49.304;10.576;2024-03-02T00:06:10;6.10;99.90
11122;DHT22;5615;49.304;10.576;2024-03-02T00:08:37;6.00;99.90
11122;DHT22;5615;49.304;10.576;2024-03-02T00:11:04;6.00;99.90
11122;DHT22;5615;49.304;10.576;2024-03-02T00:13:30;6.00;99.90
11122;DHT22;5615;49.304;10.576;2024-03-02T00:15:57;6.00;99.90
11122;DHT22;5615;49.304;10.576;2024-03-02T00:18:25;6.00;99.90
11122;DHT22;5615;49.304;10.576;2024-03-02T00:20:54;6.00;99.90
11122;DHT22;5615;49.304;10.576;2024-03-02T00:23:23;5.90;99.90
11122;DHT22;5615;49.304;10.576;2024-03-02T00:25:51;5.90;99.90
11122;DHT22;5615;49.304;10.576;2024-03-02T00:28:21;5.90;99.90
11122;DHT22;5615;49.304;10.576;2024-03-02T00:30:55;5.80;99.90
11122;DHT22;5615;49.304;10.576;2024-03-02T00:33:23;5.70;99.90
11122;DHT22;5615;49.304;10.576;2024-03-02T00:35:50;5.70;99.90
11122;DHT22;5615;49.304;10.576;2024-03-02T00:38:18;5.70;99.90
11122;DHT22;5615;49.304;10.576;2024-03-02T00:40:46;5.80;99.90
11122;DHT22;5615;49.304;10.576;2024-03-02T00:43:44;5.80;99.90
11122;DHT22;5615;49.304;10.576;2024-03-02T00:46:12;5.80;99.90
11122;DHT22;5615;49.304;10.576;2024-03-02T00:48:45;5.90;99.90
11122;DHT22;5615;49.304;10.576;2024-03-02T00:51:14;5.80;99.90
11122;DHT22;5615;49.304;10.576;2024-03-02T00:53:42;5.70;99.90
11122;DHT22;5615;49.304;10.576;2024-03-02T00:56:09;5.70;99.90
11122;DHT22;5615;49.304;10.576;2024-03-02T00:58:36;5.70;99.90
11122;DHT22;5615;49.304;10.576;2024-03-02T01:01:03;5.80;99.90
11122;DHT22;5615;49.304;10.576;2024-03-02T01:03:31;5.70;99.90
11122;DHT22;5615;49.304;10.576;2024-03-02T01:05:58;5.80;99.90
11122;DHT22;5615;49.304;10.576;2024-03-02T01:08:25;5.70;99.90
11122;DHT22;5615;49.304;10.576;2024-03-02T01:10:53;5.70;99.90
11122;DHT22;5615;49.304;10.576;2024-03-02T01:13:21;5.70;99.90
11122;DHT22;5615;49.304;10.576;2024-03-02T01:15:48;5.70;99.90
11122;DHT22;5615;49.304;10.576;2024-03-02T01:18:15;5.70;99.90
11122;DHT22;5615;49.304;10.576;2024-03-02T01:20:41;5.70;99.90
11122;DHT22;5615;49.304;10.576;2024-03-02T01:23:08;5.70;99.90
11122;DHT22;5615;49.304;10.576;2024-03-02T01:25:35;5.70;99.90
11122;DHT22;5615;49.304;10.576;2024-03-02T01:28:04;5.70;99.90
11122;DHT22;5615;49.304;10.576;2024-03-02T01:30:30;5.50;99.90
11122;DHT22;5615;49.304;10.576;2024-03-02T01:32:57;5.50;99.90
11122;DHT22;5615;49.304;10.576;2024-03-02T01:35:24;5.50;99.90
11122;DHT22;5615;49.304;10.576;2024-03-02T01:37:53;5.50;99.90
11122;DHT22;5615;49.304;10.576;2024-03-02T01:40:19;5.50;99.90
11122;DHT22;5615;49.304;10.576;2024-03-02T01:42:46;5.40;99.90
11122;DHT22;5615;49.304;10.576;2024-03-02T01:45:14;5.40;99.90
11122;DHT22;5615;49.304;10.576;2024-03-02T01:47:41;5.50;99.90
11122;DHT22;5615;49.304;10.576;2024-03-02T01:50:08;5.50;99.90
11122;DHT22;5615;49.304;10.576;2024-03-02T01:52:37;5.60;99.90
11122;DHT22;5615;49.304;10.576;2024-03-02T01:55:04;5.60;99.90
11122;DHT22;5615;49.304;10.576;2024-03-02T01:57:31;5.50;99.90
11122;DHT22;5615;49.304;10.576;2024-03-02T01:59:58;5.50;99.90
11122;DHT22;5615;49.304;10.576;2024-03-02T02:02:26;5.50;99.90
11122;DHT22;5615;49.304;10.576;2024-03-02T02:04:53;5.60;99.90
11122;DHT22;5615;49.304;10.576;2024-03-02T02:07:20;5.70;99.90
11122;DHT22;5615;49.304;10.576;2024-03-02T02:09:46;5.80;99.90
11122;DHT22;5615;49.304;10.576;2024-03-02T02:12:13;5.80;99.90
11122;DHT22;5615;49.304;10.576;2024-03-02T02:14:47;5.80;99.90
11122;DHT22;5615;49.304;10.576;2024-03-02T02:17:13;5.90;99.90
11122;DHT22;5615;49.304;10.576;2024-03-02T02:19:41;6.00;99.90
11122;DHT22;5615;49.304;10.576;2024-03-02T02:22:09;5.90;99.90
11122;DHT22;5615;49.304;10.576;2024-03-02T02:24:39;6.00;99.90
11122;DHT22;5615;49.304;10.576;2024-03-02T02:27:05;6.00;99.90
11122;DHT22;5615;49.304;10.576;2024-03-02T02:29:32;5.90;99.90
11122;DHT22;5615;49.304;10.576;2024-03-02T02:31:59;6.00;99.90
11122;DHT22;5615;49.304;10.576;2024-03-02T02:34:26;6.00;99.90
11122;DHT22;5615;49.304;10.576;2024-03-02T02:36:52;5.90;99.90
11122;DHT22;5615;49.304;10.576;2024-03-02T02:39:21;5.90;99.90
11122;DHT22;5615;49.304;10.576;2024-03-02T02:41:48;5.80;99.90
11122;DHT22;5615;49.304;10.576;2024-03-02T02:44:15;5.80;99.90
11122;DHT22;5615;49.304;10.576;2024-03-02T02:46:42;5.80;99.90
11122;DHT22;5615;49.304;10.576;2024-03-02T02:49:08;5.80;99.90
11122;DHT22;5615;49.304;10.576;2024-03-02T02:51:35;5.80;99.90
11122;DHT22;5615;49.304;10.576;2024-03-02T02:54:02;5.80;99.90
11122;DHT22;5615;49.304;10.576;2024-03-02T02:56:30;5.80;99.90
11122;DHT22;5615;49.304;10.576;2024-03-02T02:58:57;5.80;99.90
11122;DHT22;5615;49.304;10.576;2024-03-02T03:01:24;5.90;99.90
11122;DHT22;5615;49.304;10.576;2024-03-02T03:03:51;5.90;99.90
11122;DHT22;5615;49.304;10.576;2024-03-02T03:06:17;5.80;99.90
11122;DHT22;5615;49.304;10.576;2024-03-02T03:08:44;5.90;99.90
11122;DHT22;5615;49.304;10.576;2024-03-02T03:11:10;5.80;99.90
11122;DHT22;5615;49.304;10.576;2024-03-02T03:13:38;5.80;99.90
11122;DHT22;5615;49.304;10.576;2024-03-02T03:16:05;5.80;99.90
11122;DHT22;5615;49.304;10.576;2024-03-02T03:18:32;5.90;99.90
11122;DHT22;5615;49.304;10.576;2024-03-02T03:20:59;5.80;99.90
11122;DHT22;5615;49.304;10.576;2024-03-02T03:23:25;5.90;99.90
11122;DHT22;5615;49.304;10.576;2024-03-02T03:25:52;5.80;99.90
11122;DHT22;5615;49.304;10.576;2024-03-02T03:28:18;5.80;99.90
11122;DHT22;5615;49.304;10.576;2024-03-02T03:30:47;5.80;99.90
11122;DHT22;5615;49.304;10.576;2024-03-02T03:33:13;5.80;99.90
11122;DHT22;5615;49.304;10.576;2024-03-02T03:35:40;5.80;99.90
11122;DHT22;5615;49.304;10.576;2024-03-02T03:38:07;5.70;99.90
11122;DHT22;5615;49.304;10.576;2024-03-02T03:40:33;5.70;99.90
11122;DHT22;5615;49.304;10.576;2024-03-02T03:43:00;5.70;99.90
11122;DHT22;5615;49.304;10.576;2024-03-02T03:45:27;5.70;99.90
11122;DHT22;5615;49.304;10.576;2024-03-02T03:47:57;5.70;99.90
11122;DHT22;5615;49.304;10.576;2024-03-02T03:50:24;5.60;99.90
11122;DHT22;5615;49.304;10.576;2024-03-02T03:52:50;5.70;99.90
11122;DHT22;5615;49.304;10.576;2024-03-02T03:55:17;5.60;99.90
11122;DHT22;5615;49.304;10.576;2024-03-02T03:57:43;5.60;99.90
11122;DHT22;5615;49.304;10.576;2024-03-02T04:00:11;5.60;99.90
11122;DHT22;5615;49.304;10.576;2024-03-02T04:02:38;5.60;99.90
11122;DHT22;5615;49.304;10.576;2024-03-02T04:05:06;5.50;99.90
11122;DHT22;5615;49.304;10.576;2024-03-02T04:07:36;5.50;99.90
11122;DHT22;5615;49.304;10.576;2024-03-02T04:10:07;5.50;99.90
11122;DHT22;5615;49.304;10.576;2024-03-02T04:12:34;5.50;99.90
11122;DHT22;5615;49.304;10.576;2024-03-02T04:15:01;5.40;99.90
11122;DHT22;5615;49.304;10.576;2024-03-02T04:17:29;5.30;99.90
11122;DHT22;5615;49.304;10.576;2024-03-02T04:19:57;5.30;99.90
11122;DHT22;5615;49.304;10.576;2024-03-02T04:22:25;5.30;99.90
11122;DHT22;5615;49.304;10.576;2024-03-02T04:24:52;5.30;99.90
11122;DHT22;5615;49.304;10.576;2024-03-02T04:27:19;5.30;99.90
11122;DHT22;5615;49.304;10.576;2024-03-02T04:29:45;5.40;99.90
11122;DHT22;5615;49.304;10.576;2024-03-02T04:32:12;5.40;99.90
11122;DHT22;5615;49.304;10.576;2024-03-02T04:34:38;5.40;99.90
11122;DHT22;5615;49.304;10.576;2024-03-02T04:37:05;5.30;99.90
11122;DHT22;5615;49.304;10.576;2024-03-02T04:39:34;5.30;99.90
11122;DHT22;5615;49.304;10.576;2024-03-02T04:42:01;5.30;99.90
11122;DHT22;5615;49.304;10.576;2024-03-02T04:44:28;5.20;99.90
11122;DHT22;5615;49.304;10.576;2024-03-02T04:46:54;5.20;99.90
11122;DHT22;5615;49.304;10.576;2024-03-02T04:49:21;5.20;99.90
11122;DHT22;5615;49.304;10.576;2024-03-02T04:51:48;5.30;99.90
11122;DHT22;5615;49.304;10.576;2024-03-02T04:54:14;5.20;99.90
11122;DHT22;5615;49.304;10.576;2024-03-02T04:56:42;5.20;99.90
11122;DHT22;5615;49.304;10.576;2024-03-02T04:59:15;5.10;99.90
11122;DHT22;5615;49.304;10.576;2024-03-02T05:01:42;5.10;99.90
11122;DHT22;5615;49.304;10.576;2024-03-02T05:04:08;5.10;99.90
11122;DHT22;5615;49.304;10.576;2024-03-02T05:06:37;5.10;99.90
11122;DHT22;5615;49.304;10.576;2024-03-02T05:09:04;5.00;99.90
11122;DHT22;5615;49.304;10.576;2024-03-02T05:11:31;5.00;99.90
11122;DHT22;5615;49.304;10.576;2024-03-02T05:14:19;4.90;99.90
11122;DHT22;5615;49.304;10.576;2024-03-02T05:16:45;4.90;99.90
11122;DHT22;5615;49.304;10.576;2024-03-02T05:19:12;4.90;99.90
11122;DHT22;5615;49.304;10.576;2024-03-02T05:21:38;4.80;99.90
11122;DHT22;5615;49.304;10.576;2024-03-02T05:24:05;4.80;99.90
11122;DHT22;5615;49.304;10.576;2024-03-02T05:26:32;4.80;99.90
11122;DHT22;5615;49.304;10.576;2024-03-02T05:28:59;4.80;99.90
11122;DHT22;5615;49.304;10.576;2024-03-02T05:31:26;4.80;99.90
11122;DHT22;5615;49.304;10.576;2024-03-02T05:33:52;4.70;99.90
11122;DHT22;5615;49.304;10.576;2024-03-02T05:36:19;4.80;99.90
11122;DHT22;5615;49.304;10.576;2024-03-02T05:38:46;4.80;99.90
11122;DHT22;5615;49.304;10.576;2024-03-02T05:41:13;4.80;99.90
11122;DHT22;5615;49.304;10.576;2024-03-02T05:43:39;4.90;99.90
11122;DHT22;5615;49.304;10.576;2024-03-02T05:46:06;4.90;99.90
11122;DHT22;5615;49.304;10.576;2024-03-02T05:48:34;4.90;99.90
11122;DHT22;5615;49.304;10.576;2024-03-02T05:51:01;4.90;99.90
11122;DHT22;5615;49.304;10.576;2024-03-02T05:53:27;5.00;99.90
11122;DHT22;5615;49.304;10.576;2024-03-02T05:55:54;5.00;99.90
11122;DHT22;5615;49.304;10.576;2024-03-02T05:58:21;5.00;99.90
11122;DHT22;5615;49.304;10.576;2024-03-02T06:00:59;5.10;99.90
11122;DHT22;5615;49.304;10.576;2024-03-02T06:03:26;5.10;99.90
11122;DHT22;5615;49.304;10.576;2024-03-02T06:05:55;5.10;99.90
11122;DHT22;5615;49.304;10.576;2024-03-02T06:08:21;5.20;99.90
11122;DHT22;5615;49.304;10.576;2024-03-02T06:10:48;5.20;99.90
11122;DHT22;5615;49.304;10.576;2024-03-02T06:13:15;5.20;99.90
11122;DHT22;5615;49.304;10.576;2024-03-02T06:15:41;5.20;99.90
11122;DHT22;5615;49.304;10.576;2024-03-02T06:18:08;5.20;99.90
11122;DHT22;5615;49.304;10.576;2024-03-02T06:20:35;5.30;99.90
11122;DHT22;5615;49.304;10.576;2024-03-02T06:23:04;5.30;99.90
11122;DHT22;5615;49.304;10.576;2024-03-02T06:25:30;5.20;99.90
11122;DHT22;5615;49.304;10.576;2024-03-02T06:27:57;5.30;99.90
11122;DHT22;5615;49.304;10.576;2024-03-02T06:30:24;5.30;99.90
11122;DHT22;5615;49.304;10.576;2024-03-02T06:32:50;5.30;99.90
11122;DHT22;5615;49.304;10.576;2024-03-02T06:35:17;5.40;99.90
11122;DHT22;5615;49.304;10.576;2024-03-02T06:37:44;5.40;99.90
11122;DHT22;5615;49.304;10.576;2024-03-02T06:40:12;5.50;99.90
11122;DHT22;5615;49.304;10.576;2024-03-02T06:42:38;5.50;99.90
11122;DHT22;5615;49.304;10.576;2024-03-02T06:45:06;5.50;99.90
11122;DHT22;5615;49.304;10.576;2024-03-02T06:47:32;5.50;99.90
11122;DHT22;5615;49.304;10.576;2024-03-02T06:49:59;5.50;99.90
11122;DHT22;5615;49.304;10.576;2024-03-02T06:52:26;5.50;99.90
11122;DHT22;5615;49.304;10.576;2024-03-02T06:54:52;5.50;99.90
11122;DHT22;5615;49.304;10.576;2024-03-02T06:57:20;5.50;99.90
11122;DHT22;5615;49.304;10.576;2024-03-02T06:59:47;5.50;99.90
11122;DHT22;5615;49.304;10.576;2024-03-02T07:02:15;5.60;99.90
11122;DHT22;5615;49.304;10.576;2024-03-02T07:04:42;5.60;99.90
11122;DHT22;5615;49.304;10.576;2024-03-02T07:07:10;5.60;99.90
11122;DHT22;5615;49.304;10.576;2024-03-02T07:09:36;5.70;99.90
11122;DHT22;5615;49.304;10.576;2024-03-02T07:12:03;5.80;99.90
11122;DHT22;5615;49.304;10.576;2024-03-02T07:14:32;5.80;99.90
11122;DHT22;5615;49.304;10.576;2024-03-02T07:17:12;5.90;99.90
11122;DHT22;5615;49.304;10.576;2024-03-02T07:19:39;6.00;99.90
11122;DHT22;5615;49.304;10.576;2024-03-02T07:22:06;6.10;99.90
11122;DHT22;5615;49.304;10.576;2024-03-02T07:24:39;6.20;99.90
11122;DHT22;5615;49.304;10.576;2024-03-02T07:27:07;6.30;99.90
11122;DHT22;5615;49.304;10.576;2024-03-02T07:29:35;6.50;99.90
11122;DHT22;5615;49.304;10.576;2024-03-02T07:32:02;6.70;99.90
11122;DHT22;5615;49.304;10.576;2024-03-02T07:34:29;6.80;99.90
11122;DHT22;5615;49.304;10.576;2024-03-02T07:36:56;6.80;99.90
11122;DHT22;5615;49.304;10.576;2024-03-02T07:39:23;6.90;99.90
11122;DHT22;5615;49.304;10.576;2024-03-02T07:41:49;7.00;99.90
11122;DHT22;5615;49.304;10.576;2024-03-02T07:44:15;7.20;99.90
11122;DHT22;5615;49.304;10.576;2024-03-02T07:46:46;7.30;99.90
11122;DHT22;5615;49.304;10.576;2024-03-02T07:49:15;7.30;99.90
11122;DHT22;5615;49.304;10.576;2024-03-02T07:51:42;7.40;99.90
11122;DHT22;5615;49.304;10.576;2024-03-02T07:54:09;7.30;99.90
11122;DHT22;5615;49.304;10.576;2024-03-02T07:56:35;7.50;99.90
11122;DHT22;5615;49.304;10.576;2024-03-02T07:59:02;7.60;99.90
11122;DHT22;5615;49.304;10.576;2024-03-02T08:01:29;7.80;99.90
11122;DHT22;5615;49.304;10.576;2024-03-02T08:03:58;7.80;99.90
11122;DHT22;5615;49.304;10.576;2024-03-02T08:06:25;7.90;99.90
11122;DHT22;5615;49.304;10.576;2024-03-02T08:08:53;7.70;99.90
11122;DHT22;5615;49.304;10.576;2024-03-02T08:11:20;7.70;99.90
11122;DHT22;5615;49.304;10.576;2024-03-02T08:13:47;7.70;99.90
11122;DHT22;5615;49.304;10.576;2024-03-02T08:16:13;7.90;99.90
11122;DHT22;5615;49.304;10.576;2024-03-02T08:18:40;8.00;99.90
11122;DHT22;5615;49.304;10.576;2024-03-02T08:21:08;8.10;99.90
11122;DHT22;5615;49.304;10.576;2024-03-02T08:23:35;8.50;99.90
11122;DHT22;5615;49.304;10.576;2024-03-02T08:26:02;8.70;99.90
11122;DHT22;5615;49.304;10.576;2024-03-02T08:28:29;9.10;99.90
11122;DHT22;5615;49.304;10.576;2024-03-02T08:30:56;9.00;99.90
11122;DHT22;5615;49.304;10.576;2024-03-02T08:33:23;9.10;99.90
11122;DHT22;5615;49.304;10.576;2024-03-02T08:35:49;9.40;99.90
11122;DHT22;5615;49.304;10.576;2024-03-02T08:38:17;9.30;99.90
11122;DHT22;5615;49.304;10.576;2024-03-02T08:40:44;9.30;99.90
11122;DHT22;5615;49.304;10.576;2024-03-02T08:43:11;9.20;99.90
11122;DHT22;5615;49.304;10.576;2024-03-02T08:45:38;9.20;99.90
11122;DHT22;5615;49.304;10.576;2024-03-02T08:48:06;9.30;99.90
11122;DHT22;5615;49.304;10.576;2024-03-02T08:50:33;9.50;99.90
11122;DHT22;5615;49.304;10.576;2024-03-02T08:53:00;9.70;99.90
11122;DHT22;5615;49.304;10.576;2024-03-02T08:55:28;9.80;99.90
11122;DHT22;5615;49.304;10.576;2024-03-02T08:57:55;9.70;99.90
11122;DHT22;5615;49.304;10.576;2024-03-02T09:00:23;9.70;99.90
11122;DHT22;5615;49.304;10.576;2024-03-02T09:02:49;9.90;99.90
11122;DHT22;5615;49.304;10.576;2024-03-02T09:05:16;9.90;99.90
11122;DHT22;5615;49.304;10.576;2024-03-02T09:07:43;10.10;99.90
11122;DHT22;5615;49.304;10.576;2024-03-02T09:10:09;10.40;99.90
11122;DHT22;5615;49.304;10.576;2024-03-02T09:12:38;10.70;99.90
11122;DHT22;5615;49.304;10.576;2024-03-02T09:15:05;10.70;99.90
11122;DHT22;5615;49.304;10.576;2024-03-02T09:17:32;10.90;99.90
11122;DHT22;5615;49.304;10.576;2024-03-02T09:19:59;10.50;99.90
11122;DHT22;5615;49.304;10.576;2024-03-02T09:22:26;10.90;99.90
11122;DHT22;5615;49.304;10.576;2024-03-02T09:24:52;11.10;99.90
11122;DHT22;5615;49.304;10.576;2024-03-02T09:27:19;11.10;99.90
11122;DHT22;5615;49.304;10.576;2024-03-02T09:29:47;11.00;99.90
11122;DHT22;5615;49.304;10.576;2024-03-02T09:32:13;11.10;99.90
11122;DHT22;5615;49.304;10.576;2024-03-02T09:34:41;10.90;99.90
11122;DHT22;5615;49.304;10.576;2024-03-02T09:37:08;10.90;99.90
11122;DHT22;5615;49.304;10.576;2024-03-02T09:39:35;11.30;99.90
11122;DHT22;5615;49.304;10.576;2024-03-02T09:42:03;11.40;99.90
11122;DHT22;5615;49.304;10.576;2024-03-02T09:44:30;11.40;99.90
11122;DHT22;5615;49.304;10.576;2024-03-02T09:46:58;11.40;99.90
11122;DHT22;5615;49.304;10.576;2024-03-02T09:49:25;11.40;99.90
11122;DHT22;5615;49.304;10.576;2024-03-02T09:51:52;11.50;99.90
11122;DHT22;5615;49.304;10.576;2024-03-02T09:54:19;11.70;99.90
11122;DHT22;5615;49.304;10.576;2024-03-02T09:56:46;11.80;99.90
11122;DHT22;5615;49.304;10.576;2024-03-02T09:59:13;11.30;99.90
11122;DHT22;5615;49.304;10.576;2024-03-02T10:01:55;11.50;99.90
11122;DHT22;5615;49.304;10.576;2024-03-02T10:04:24;11.50;99.90
11122;DHT22;5615;49.304;10.576;2024-03-02T10:06:51;11.70;99.90
11122;DHT22;5615;49.304;10.576;2024-03-02T10:09:27;11.70;99.90
11122;DHT22;5615;49.304;10.576;2024-03-02T10:12:03;11.80;99.90
11122;DHT22;5615;49.304;10.576;2024-03-02T10:14:30;11.70;99.90
11122;DHT22;5615;49.304;10.576;2024-03-02T10:17:02;12.10;99.90
11122;DHT22;5615;49.304;10.576;2024-03-02T10:19:30;12.60;99.90
11122;DHT22;5615;49.304;10.576;2024-03-02T10:21:59;13.00;99.90
11122;DHT22;5615;49.304;10.576;2024-03-02T10:24:26;13.50;99.90
11122;DHT22;5615;49.304;10.576;2024-03-02T10:26:53;13.20;99.90
11122;DHT22;5615;49.304;10.576;2024-03-02T10:29:20;13.60;99.90
11122;DHT22;5615;49.304;10.576;2024-03-02T10:31:47;13.20;99.90
11122;DHT22;5615;49.304;10.576;2024-03-02T10:34:14;13.40;99.90
11122;DHT22;5615;49.304;10.576;2024-03-02T10:36:43;13.80;99.90
11122;DHT22;5615;49.304;10.576;2024-03-02T10:39:13;13.80;99.90
11122;DHT22;5615;49.304;10.576;2024-03-02T10:41:40;13.60;99.90
11122;DHT22;5615;49.304;10.576;2024-03-02T10:44:08;13.60;99.90
11122;DHT22;5615;49.304;10.576;2024-03-02T10:46:37;13.60;99.90
11122;DHT22;5615;49.304;10.576;2024-03-02T10:49:05;13.80;99.90
11122;DHT22;5615;49.304;10.576;2024-03-02T10:51:33;14.80;99.90
11122;DHT22;5615;49.304;10.576;2024-03-02T10:54:03;15.10;99.90
11122;DHT22;5615;49.304;10.576;2024-03-02T10:56:32;15.40;99.90
11122;DHT22;5615;49.304;10.576;2024-03-02T10:59:02;15.00;99.90
11122;DHT22;5615;49.304;10.576;2024-03-02T11:01:31;14.90;99.90
11122;DHT22;5615;49.304;10.576;2024-03-02T11:03:59;14.40;99.90
11122;DHT22;5615;49.304;10.576;2024-03-02T11:06:28;14.90;99.90
11122;DHT22;5615;49.304;10.576;2024-03-02T11:09:00;15.40;99.90
11122;DHT22;5615;49.304;10.576;2024-03-02T11:11:32;16.70;99.90
11122;DHT22;5615;49.304;10.576;2024-03-02T11:14:04;17.10;99.90
11122;DHT22;5615;49.304;10.576;2024-03-02T11:16:35;16.90;99.90
11122;DHT22;5615;49.304;10.576;2024-03-02T11:19:03;16.50;99.90
11122;DHT22;5615;49.304;10.576;2024-03-02T11:21:31;16.30;99.90
11122;DHT22;5615;49.304;10.576;2024-03-02T11:23:58;16.30;99.90
11122;DHT22;5615;49.304;10.576;2024-03-02T11:26:25;16.00;99.90
11122;DHT22;5615;49.304;10.576;2024-03-02T11:28:55;16.10;99.90
11122;DHT22;5615;49.304;10.576;2024-03-02T11:31:57;17.30;99.90
11122;DHT22;5615;49.304;10.576;2024-03-02T11:34:29;16.90;99.90
11122;DHT22;5615;49.304;10.576;2024-03-02T11:36:56;17.20;99.90
11122;DHT22;5615;49.304;10.576;2024-03-02T11:39:24;16.60;99.90
11122;DHT22;5615;49.304;10.576;2024-03-02T11:41:51;17.30;99.90
11122;DHT22;5615;49.304;10.576;2024-03-02T11:44:19;17.80;99.90
11122;DHT22;5615;49.304;10.576;2024-03-02T11:46:46;17.70;99.90
11122;DHT22;5615;49.304;10.576;2024-03-02T11:49:14;17.50;99.90
11122;DHT22;5615;49.304;10.576;2024-03-02T11:51:51;17.30;99.90
11122;DHT22;5615;49.304;10.576;2024-03-02T11:54:19;16.80;99.90
11122;DHT22;5615;49.304;10.576;2024-03-02T11:56:46;16.80;99.90
11122;DHT22;5615;49.304;10.576;2024-03-02T11:59:13;17.30;99.90
11122;DHT22;5615;49.304;10.576;2024-03-02T12:01:42;18.20;99.90
11122;DHT22;5615;49.304;10.576;2024-03-02T12:04:10;18.90;99.90
11122;DHT22;5615;49.304;10.576;2024-03-02T12:06:37;18.40;99.90
11122;DHT22;5615;49.304;10.576;2024-03-02T12:09:04;18.80;99.90
11122;DHT22;5615;49.304;10.576;2024-03-02T12:11:32;19.90;99.90
11122;DHT22;5615;49.304;10.576;2024-03-02T12:13:58;20.00;99.90
11122;DHT22;5615;49.304;10.576;2024-03-02T12:16:25;19.80;99.90
11122;DHT22;5615;49.304;10.576;2024-03-02T12:18:54;20.80;99.90
11122;DHT22;5615;49.304;10.576;2024-03-02T12:21:20;20.50;99.90
11122;DHT22;5615;49.304;10.576;2024-03-02T12:23:47;21.40;99.90
11122;DHT22;5615;49.304;10.576;2024-03-02T12:26:15;22.50;99.90
11122;DHT22;5615;49.304;10.576;2024-03-02T12:28:43;23.10;99.90
11122;DHT22;5615;49.304;10.576;2024-03-02T12:31:10;23.40;98.10
11122;DHT22;5615;49.304;10.576;2024-03-02T12:33:36;23.60;97.20
11122;DHT22;5615;49.304;10.576;2024-03-02T12:36:05;23.50;95.60
11122;DHT22;5615;49.304;10.576;2024-03-02T12:38:37;22.00;95.80
11122;DHT22;5615;49.304;10.576;2024-03-02T12:41:04;22.80;96.10
11122;DHT22;5615;49.304;10.576;2024-03-02T12:43:31;24.50;94.70
11122;DHT22;5615;49.304;10.576;2024-03-02T12:45:58;23.90;92.30
11122;DHT22;5615;49.304;10.576;2024-03-02T12:48:25;22.00;93.20
11122;DHT22;5615;49.304;10.576;2024-03-02T12:50:52;22.50;93.90
11122;DHT22;5615;49.304;10.576;2024-03-02T12:53:21;23.50;92.60
11122;DHT22;5615;49.304;10.576;2024-03-02T12:55:48;24.70;91.00
11122;DHT22;5615;49.304;10.576;2024-03-02T12:58:19;23.80;90.40
11122;DHT22;5615;49.304;10.576;2024-03-02T13:00:46;23.70;88.20
11122;DHT22;5615;49.304;10.576;2024-03-02T13:03:13;25.00;89.40
11122;DHT22;5615;49.304;10.576;2024-03-02T13:05:41;26.40;82.80
11122;DHT22;5615;49.304;10.576;2024-03-02T13:08:08;26.90;78.80
11122;DHT22;5615;49.304;10.576;2024-03-02T13:10:36;26.70;75.00
11122;DHT22;5615;49.304;10.576;2024-03-02T13:13:02;26.40;71.50
11122;DHT22;5615;49.304;10.576;2024-03-02T13:15:29;25.60;72.40
11122;DHT22;5615;49.304;10.576;2024-03-02T13:17:58;26.80;68.30
11122;DHT22;5615;49.304;10.576;2024-03-02T13:20:30;27.90;66.90
11122;DHT22;5615;49.304;10.576;2024-03-02T13:22:57;27.60;65.80
11122;DHT22;5615;49.304;10.576;2024-03-02T13:25:23;27.60;65.70
11122;DHT22;5615;49.304;10.576;2024-03-02T13:27:51;28.20;64.90
11122;DHT22;5615;49.304;10.576;2024-03-02T13:30:18;28.90;62.00
11122;DHT22;5615;49.304;10.576;2024-03-02T13:32:44;29.40;59.70
11122;DHT22;5615;49.304;10.576;2024-03-02T13:35:11;29.50;57.10
11122;DHT22;5615;49.304;10.576;2024-03-02T13:37:38;30.40;55.40
11122;DHT22;5615;49.304;10.576;2024-03-02T13:40:05;30.60;52.30
11122;DHT22;5615;49.304;10.576;2024-03-02T13:42:38;30.70;51.10
11122;DHT22;5615;49.304;10.576;2024-03-02T13:45:06;30.40;49.60
11122;DHT22;5615;49.304;10.576;2024-03-02T13:47:33;31.10;47.40
11122;DHT22;5615;49.304;10.576;2024-03-02T13:50:00;30.70;47.40
11122;DHT22;5615;49.304;10.576;2024-03-02T13:52:28;31.10;46.20
11122;DHT22;5615;49.304;10.576;2024-03-02T13:54:55;30.70;44.60
11122;DHT22;5615;49.304;10.576;2024-03-02T13:57:22;30.60;42.10
11122;DHT22;5615;49.304;10.576;2024-03-02T13:59:48;31.00;41.60
11122;DHT22;5615;49.304;10.576;2024-03-02T14:02:17;31.60;40.80
11122;DHT22;5615;49.304;10.576;2024-03-02T14:04:44;31.10;38.40
11122;DHT22;5615;49.304;10.576;2024-03-02T14:07:11;30.90;37.00
11122;DHT22;5615;49.304;10.576;2024-03-02T14:09:37;31.00;36.10
11122;DHT22;5615;49.304;10.576;2024-03-02T14:12:05;30.60;36.60
11122;DHT22;5615;49.304;10.576;2024-03-02T14:14:32;30.90;36.50
11122;DHT22;5615;49.304;10.576;2024-03-02T14:16:59;31.50;35.90
11122;DHT22;5615;49.304;10.576;2024-03-02T14:19:30;31.70;35.90
11122;DHT22;5615;49.304;10.576;2024-03-02T14:21:57;31.20;34.20
11122;DHT22;5615;49.304;10.576;2024-03-02T14:24:23;31.70;35.20
11122;DHT22;5615;49.304;10.576;2024-03-02T14:26:51;31.20;34.50
11122;DHT22;5615;49.304;10.576;2024-03-02T14:29:18;32.00;34.20
11122;DHT22;5615;49.304;10.576;2024-03-02T14:31:44;32.60;32.30
11122;DHT22;5615;49.304;10.576;2024-03-02T14:34:13;32.40;31.60
11122;DHT22;5615;49.304;10.576;2024-03-02T14:36:41;32.80;31.40
11122;DHT22;5615;49.304;10.576;2024-03-02T14:39:09;32.70;31.20
11122;DHT22;5615;49.304;10.576;2024-03-02T14:41:36;32.50;30.40
11122;DHT22;5615;49.304;10.576;2024-03-02T14:44:02;32.30;31.10
11122;DHT22;5615;49.304;10.576;2024-03-02T14:46:29;32.70;30.10
11122;DHT22;5615;49.304;10.576;2024-03-02T14:48:56;31.90;29.70
11122;DHT22;5615;49.304;10.576;2024-03-02T14:51:23;31.70;29.10
11122;DHT22;5615;49.304;10.576;2024-03-02T14:53:51;31.80;29.20
11122;DHT22;5615;49.304;10.576;2024-03-02T14:56:18;31.80;29.00
11122;DHT22;5615;49.304;10.576;2024-03-02T14:58:44;31.80;28.00
11122;DHT22;5615;49.304;10.576;2024-03-02T15:01:11;31.80;28.10
11122;DHT22;5615;49.304;10.576;2024-03-02T15:03:38;31.80;27.50
11122;DHT22;5615;49.304;10.576;2024-03-02T15:06:05;31.70;27.70
11122;DHT22;5615;49.304;10.576;2024-03-02T15:08:33;30.40;27.60
11122;DHT22;5615;49.304;10.576;2024-03-02T15:11:01;29.60;27.40
11122;DHT22;5615;49.304;10.576;2024-03-02T15:13:29;29.40;27.80
11122;DHT22;5615;49.304;10.576;2024-03-02T15:15:56;29.30;28.00
11122;DHT22;5615;49.304;10.576;2024-03-02T15:18:22;29.40;28.00
11122;DHT22;5615;49.304;10.576;2024-03-02T15:20:49;29.10;28.60
11122;DHT22;5615;49.304;10.576;2024-03-02T15:23:16;29.70;28.10
11122;DHT22;5615;49.304;10.576;2024-03-02T15:25:41;29.60;28.30
11122;DHT22;5615;49.304;10.576;2024-03-02T15:28:09;29.00;28.40
11122;DHT22;5615;49.304;10.576;2024-03-02T15:30:36;28.30;28.60
11122;DHT22;5615;49.304;10.576;2024-03-02T15:33:03;27.90;29.70
11122;DHT22;5615;49.304;10.576;2024-03-02T15:35:29;27.20;29.90
11122;DHT22;5615;49.304;10.576;2024-03-02T15:37:56;26.80;30.30
11122;DHT22;5615;49.304;10.576;2024-03-02T15:40:23;25.80;31.40
11122;DHT22;5615;49.304;10.576;2024-03-02T15:42:49;26.00;31.40